Time;durP1;ratioP1;P1;durP2;ratioP2;P2;SDS_P1;SDS_P2;PMS_P1;PMS_P2;Temp;Humidity;BMP_temperature;BMP_pressure;BME280_temperature;BME280_humidity;BME280_pressure;Samples;Min_cycle;Max_cycle;Signal;HPM_P1;HPM_P2
2022/06/08 00:04:05;;;;;;;4.50;2.30;;;18.30;98.20;;;;;;10012416;28;20061;-61
2022/06/08 00:08:55;;;;;;;5.18;1.88;;;18.30;98.20;;;;;;10012518;28;20034;-62
2022/06/08 00:13:46;;;;;;;2.97;2.10;;;18.20;98.30;;;;;;10012778;28;20370;-61
2022/06/08 00:18:39;;;;;;;7.95;3.70;;;18.10;98.40;;;;;;10013509;28;20034;-60
2022/06/08 00:23:29;;;;;;;2.63;1.92;;;18.00;98.50;;;;;;10010128;28;20036;-60
2022/06/08 00:28:20;;;;;;;2.35;1.83;;;18.00;98.50;;;;;;10012762;28;20117;-60
2022/06/08 00:33:11;;;;;;;4.47;2.35;;;17.90;98.50;;;;;;10013398;28;20037;-60
2022/06/08 00:38:02;;;;;;;2.78;1.88;;;17.90;98.60;;;;;;10013819;28;20148;-61
2022/06/08 00:42:52;;;;;;;5.18;2.65;;;17.80;98.60;;;;;;10012084;28;20033;-58
2022/06/08 00:48:02;;;;;;;3.55;1.80;;;17.80;98.70;;;;;;10012660;28;20304;-60
2022/06/08 00:52:54;;;;;;;2.83;1.80;;;17.80;98.70;;;;;;9963202;28;20050;-61
2022/06/08 00:57:50;;;;;;;3.90;1.92;;;17.70;98.70;;;;;;9973388;28;20053;-61
2022/06/08 01:02:41;;;;;;;2.55;1.60;;;17.60;98.80;;;;;;9974144;28;20166;-61
2022/06/08 01:07:31;;;;;;;5.38;1.88;;;17.60;98.90;;;;;;9973883;28;20042;-61
2022/06/08 01:12:22;;;;;;;2.70;1.90;;;17.50;98.80;;;;;;9979054;28;20023;-59
2022/06/08 01:17:16;;;;;;;4.40;1.80;;;17.50;98.70;;;;;;9981211;28;20030;-60
2022/06/08 01:22:11;;;;;;;1.88;1.52;;;17.50;98.70;;;;;;9979875;28;20030;-59
2022/06/08 01:27:26;;;;;;;2.63;1.70;;;17.40;98.70;;;;;;9981840;28;20034;-60
2022/06/08 01:32:33;;;;;;;6.35;2.80;;;17.40;98.80;;;;;;9979361;28;20034;-60
2022/06/08 01:37:46;;;;;;;3.45;1.63;;;17.40;98.80;;;;;;9985602;28;20023;-61
2022/06/08 01:43:00;;;;;;;12.93;1.88;;;17.30;98.70;;;;;;9981280;28;20030;-59
2022/06/08 01:48:15;;;;;;;2.30;1.67;;;17.30;98.60;;;;;;9976228;28;20308;-61
2022/06/08 01:54:02;;;;;;;2.78;1.27;;;17.30;98.50;;;;;;10008154;28;20054;-62
2022/06/08 01:59:08;;;;;;;2.85;1.52;;;17.20;98.40;;;;;;9913636;28;20038;-65
2022/06/08 02:04:24;;;;;;;2.00;1.60;;;17.20;98.60;;;;;;10017924;28;20053;-61
2022/06/08 02:09:43;;;;;;;3.90;1.45;;;17.20;98.50;;;;;;10017578;28;20046;-61
2022/06/08 02:14:43;;;;;;;1.88;1.40;;;17.10;98.30;;;;;;10019187;28;20515;-59
2022/06/08 02:19:46;;;;;;;4.25;1.20;;;17.20;98.30;;;;;;10016360;28;20022;-61
2022/06/08 02:24:40;;;;;;;2.10;1.45;;;17.10;98.20;;;;;;10015123;28;20022;-58
2022/06/08 02:29:57;;;;;;;3.08;1.35;;;17.00;98.20;;;;;;10016419;28;20045;-60
2022/06/08 02:34:48;;;;;;;3.88;1.35;;;17.00;98.10;;;;;;10016040;28;20017;-61
2022/06/08 02:39:57;;;;;;;3.17;1.58;;;17.00;98.10;;;;;;10015963;28;20029;-58
2022/06/08 02:44:53;;;;;;;4.53;1.70;;;17.00;98.10;;;;;;10015181;28;20647;-60
2022/06/08 02:49:44;;;;;;;3.40;1.63;;;16.90;97.90;;;;;;10016380;28;20058;-61
2022/06/08 02:54:34;;;;;;;4.00;1.35;;;16.90;97.90;;;;;;10016357;28;20022;-61
2022/06/08 02:59:40;;;;;;;2.47;1.40;;;16.90;97.80;;;;;;10015399;28;20025;-60
2022/06/08 03:05:09;;;;;;;1.70;1.20;;;16.90;97.70;;;;;;10003712;28;20561;-59
2022/06/08 03:10:05;;;;;;;2.30;1.40;;;16.90;97.70;;;;;;10013371;28;20030;-61
2022/06/08 03:14:56;;;;;;;1.73;1.05;;;16.80;97.70;;;;;;10013413;28;20069;-58
2022/06/08 03:19:47;;;;;;;3.28;1.10;;;16.90;97.70;;;;;;10017096;28;20056;-61
2022/06/08 03:24:37;;;;;;;3.45;1.52;;;16.90;97.50;;;;;;10014968;28;20105;-61
2022/06/08 03:29:28;;;;;;;5.70;1.25;;;16.80;97.50;;;;;;10014755;28;20034;-62
2022/06/08 03:34:19;;;;;;;2.13;1.25;;;16.90;97.50;;;;;;10014234;28;20516;-61
2022/06/08 03:39:11;;;;;;;3.97;1.45;;;17.00;97.50;;;;;;10015658;28;20030;-61
2022/06/08 03:44:03;;;;;;;3.38;1.52;;;17.00;97.50;;;;;;10014688;28;20369;-61
2022/06/08 03:48:56;;;;;;;3.85;1.23;;;17.00;97.30;;;;;;10015057;28;20061;-61
2022/06/08 03:54:01;;;;;;;2.25;1.42;;;17.10;97.40;;;;;;9996106;28;20026;-60
2022/06/08 03:58:53;;;;;;;2.60;1.50;;;16.90;97.40;;;;;;9997047;28;20025;-59
2022/06/08 04:03:44;;;;;;;5.63;2.08;;;16.90;97.50;;;;;;10013578;28;20022;-60
2022/06/08 04:08:38;;;;;;;2.28;1.20;;;16.90;97.40;;;;;;10016411;28;20037;-61
2022/06/08 04:13:28;;;;;;;3.10;1.13;;;17.00;97.30;;;;;;10019163;28;20052;-60
2022/06/08 04:18:21;;;;;;;3.45;1.45;;;17.00;97.30;;;;;;10014150;28;20437;-60
2022/06/08 04:23:13;;;;;;;2.50;1.67;;;17.00;97.20;;;;;;10007888;28;20057;-60
2022/06/08 04:28:04;;;;;;;4.78;2.00;;;17.00;97.20;;;;;;10014197;28;20465;-60
2022/06/08 04:32:54;;;;;;;1.90;1.40;;;17.00;97.20;;;;;;10013979;28;20178;-60
2022/06/08 04:37:46;;;;;;;3.67;1.33;;;16.90;97.20;;;;;;10015031;28;20042;-62
2022/06/08 04:42:37;;;;;;;1.25;0.90;;;16.80;97.30;;;;;;10013300;28;20048;-61
2022/06/08 04:47:28;;;;;;;2.47;1.23;;;16.90;97.30;;;;;;10019557;28;20065;-63
2022/06/08 04:52:19;;;;;;;2.60;1.52;;;17.00;97.20;;;;;;10020737;28;20129;-61
2022/06/08 04:57:10;;;;;;;2.35;1.27;;;17.00;97.20;;;;;;10020601;28;20077;-61
2022/06/08 05:02:01;;;;;;;3.85;1.65;;;16.90;97.20;;;;;;10021049;28;20498;-62
2022/06/08 05:06:52;;;;;;;4.50;1.50;;;16.80;97.30;;;;;;10019223;28;20050;-61
2022/06/08 05:11:42;;;;;;;3.72;1.58;;;17.00;97.10;;;;;;10019660;28;20121;-63
2022/06/08 05:16:34;;;;;;;2.65;1.63;;;17.10;97.10;;;;;;10019915;28;20424;-66
2022/06/08 05:21:25;;;;;;;2.58;1.67;;;17.20;97.00;;;;;;10019452;28;20029;-61
2022/06/08 05:26:15;;;;;;;3.35;1.60;;;17.30;96.90;;;;;;10019010;28;20030;-62
2022/06/08 05:31:06;;;;;;;4.55;1.80;;;17.40;96.70;;;;;;10019323;28;20030;-60
2022/06/08 05:35:57;;;;;;;2.50;1.45;;;17.70;96.60;;;;;;10018844;28;20040;-61
2022/06/08 05:40:48;;;;;;;3.47;1.40;;;17.80;96.50;;;;;;10020114;28;20145;-62
2022/06/08 05:45:40;;;;;;;3.47;1.27;;;17.90;96.40;;;;;;10019556;28;20651;-62
2022/06/08 05:50:32;;;;;;;3.42;1.65;;;18.10;96.40;;;;;;10019280;28;20045;-61
2022/06/08 05:55:24;;;;;;;1.67;1.13;;;18.30;96.20;;;;;;10017216;28;20041;-61
2022/06/08 06:00:17;;;;;;;4.45;1.30;;;18.40;96.20;;;;;;10018061;28;20026;-63
2022/06/08 06:05:09;;;;;;;3.80;1.42;;;18.30;96.20;;;;;;10017818;28;20499;-60
2022/06/08 06:10:03;;;;;;;1.98;1.30;;;18.30;96.10;;;;;;10017545;28;20081;-61
2022/06/08 06:14:53;;;;;;;5.57;1.20;;;18.30;95.90;;;;;;10016067;28;20037;-60
2022/06/08 06:19:44;;;;;;;3.70;1.27;;;18.40;95.80;;;;;;10016613;28;20424;-57
2022/06/08 06:24:35;;;;;;;3.85;1.23;;;18.40;95.80;;;;;;10016134;28;20025;-61
2022/06/08 06:29:25;;;;;;;2.50;1.20;;;18.50;95.60;;;;;;10016115;28;20045;-57
2022/06/08 06:34:19;;;;;;;2.60;1.63;;;18.50;95.50;;;;;;9998524;28;20420;-63
2022/06/08 06:39:10;;;;;;;3.85;1.98;;;18.60;95.30;;;;;;10016822;28;20488;-62
2022/06/08 06:44:01;;;;;;;6.10;1.80;;;18.70;95.20;;;;;;10014521;28;20436;-61
2022/06/08 06:48:52;;;;;;;1.88;1.40;;;18.80;95.10;;;;;;10014796;28;20108;-59
2022/06/08 06:53:43;;;;;;;2.45;1.40;;;19.00;95.10;;;;;;10014988;28;20172;-59
2022/06/08 06:58:34;;;;;;;5.18;1.45;;;19.10;94.90;;;;;;10014336;28;20033;-61
2022/06/08 07:03:24;;;;;;;5.85;1.40;;;19.30;94.70;;;;;;10014201;28;20036;-60
2022/06/08 07:08:15;;;;;;;4.53;1.30;;;19.50;94.50;;;;;;10013750;28;20045;-60
2022/06/08 07:13:06;;;;;;;5.63;1.55;;;19.60;94.30;;;;;;10014246;28;20030;-60
2022/06/08 07:17:57;;;;;;;4.90;1.48;;;19.80;94.10;;;;;;10014024;28;20030;-62
2022/06/08 07:22:50;;;;;;;3.65;1.75;;;20.00;94.00;;;;;;10013020;28;20061;-61
2022/06/08 07:27:41;;;;;;;2.25;1.25;;;20.40;93.70;;;;;;10013746;28;20050;-60
2022/06/08 07:32:32;;;;;;;5.40;1.45;;;20.60;93.40;;;;;;10013048;28;20109;-59
2022/06/08 07:37:24;;;;;;;4.55;1.20;;;20.50;93.30;;;;;;10015472;28;20105;-61
2022/06/08 07:42:16;;;;;;;3.80;1.60;;;20.50;93.20;;;;;;9995703;28;20030;-60
2022/06/08 07:47:06;;;;;;;2.75;1.33;;;20.60;93.10;;;;;;10014938;28;20092;-60
2022/06/08 07:51:57;;;;;;;3.88;1.48;;;20.60;92.90;;;;;;10014167;28;20458;-61
2022/06/08 07:56:48;;;;;;;5.60;1.60;;;20.70;92.70;;;;;;10013193;28;20128;-61
2022/06/08 08:01:39;;;;;;;2.75;1.45;;;20.90;92.80;;;;;;10012547;28;20508;-60
2022/06/08 08:06:30;;;;;;;1.90;1.10;;;21.10;92.50;;;;;;10012471;28;20037;-61
2022/06/08 08:11:20;;;;;;;2.08;1.20;;;21.10;92.40;;;;;;10011954;28;20214;-62
2022/06/08 08:16:11;;;;;;;3.60;1.85;;;21.00;92.30;;;;;;10012912;28;20034;-61
2022/06/08 08:21:01;;;;;;;2.75;1.20;;;21.10;92.20;;;;;;10015700;28;20040;-59
2022/06/08 08:25:52;;;;;;;2.15;1.35;;;21.40;91.90;;;;;;10020725;28;20040;-61
2022/06/08 08:30:43;;;;;;;3.60;1.17;;;21.50;91.70;;;;;;10020517;28;20112;-60
2022/06/08 08:35:35;;;;;;;2.05;0.70;;;21.70;91.40;;;;;;10019582;28;20026;-59
2022/06/08 08:40:44;;;;;;;6.68;1.58;;;22.00;91.10;;;;;;10019602;28;20080;-59
2022/06/08 08:45:50;;;;;;;2.55;1.02;;;22.20;90.70;;;;;;10019075;28;20659;-59
2022/06/08 08:50:47;;;;;;;2.65;1.00;;;22.10;90.90;;;;;;10018468;28;20050;-59
2022/06/08 08:55:44;;;;;;;4.43;1.05;;;22.10;90.80;;;;;;10019938;28;20041;-60
2022/06/08 09:00:52;;;;;;;3.92;1.02;;;22.10;90.50;;;;;;10019308;28;20076;-59
2022/06/08 09:05:46;;;;;;;3.47;1.10;;;22.10;90.40;;;;;;10018561;28;20036;-60
2022/06/08 09:10:37;;;;;;;3.73;1.83;;;22.20;90.20;;;;;;10019632;28;20026;-60
2022/06/08 09:15:59;;;;;;;4.22;1.40;;;22.40;90.20;;;;;;10018187;28;20156;-61
2022/06/08 09:20:50;;;;;;;3.85;1.98;;;22.60;89.60;;;;;;10011867;28;20057;-60
2022/06/08 09:25:40;;;;;;;3.35;0.98;;;22.60;90.00;;;;;;10017947;28;20074;-59
2022/06/08 09:30:46;;;;;;;3.42;1.88;;;22.50;90.00;;;;;;10018046;28;20083;-63
2022/06/08 09:35:49;;;;;;;2.40;1.30;;;22.40;90.00;;;;;;10018761;28;20027;-61
2022/06/08 09:40:57;;;;;;;2.85;1.10;;;22.50;89.90;;;;;;10018963;28;20037;-61
2022/06/08 09:45:56;;;;;;;1.63;1.00;;;22.60;89.20;;;;;;10019385;28;20408;-59
2022/06/08 09:56:14;;;;;;;3.05;1.40;;;23.10;88.10;;;;;;10018465;28;20404;-60
2022/06/08 10:01:21;;;;;;;4.43;1.45;;;23.30;87.30;;;;;;10016446;28;20040;-66
2022/06/08 10:06:21;;;;;;;1.92;1.17;;;23.70;86.20;;;;;;10016778;28;20100;-60
2022/06/08 10:11:36;;;;;;;6.45;1.20;;;24.00;85.50;;;;;;10016753;28;20037;-60
2022/06/08 10:16:28;;;;;;;;;;;24.10;84.90;;;;;;9985648;28;20217;-60
2022/06/08 10:21:23;;;;;;;5.43;1.60;;;24.40;84.20;;;;;;10017731;28;20483;-60
2022/06/08 10:26:18;;;;;;;2.50;1.10;;;24.60;84.20;;;;;;10022682;28;20049;-59
2022/06/08 10:31:34;;;;;;;1.65;1.05;;;24.70;83.40;;;;;;10002361;28;20026;-60
2022/06/08 10:36:29;;;;;;;2.83;1.73;;;25.00;82.20;;;;;;10018281;28;20519;-60
2022/06/08 10:46:47;;;;;;;2.72;1.42;;;25.20;80.40;;;;;;10014541;28;20061;-58
2022/06/08 10:51:39;;;;;;;3.05;1.00;;;25.20;80.80;;;;;;10016895;28;20046;-58
2022/06/08 10:56:32;;;;;;;6.53;1.20;;;25.40;80.60;;;;;;10017345;28;20029;-59
2022/06/08 11:01:50;;;;;;;4.73;1.50;;;25.50;79.70;;;;;;10017641;28;20022;-59
2022/06/08 11:07:05;;;;;;;2.22;1.23;;;25.60;78.10;;;;;;10013912;28;20050;-58
2022/06/08 11:12:21;;;;;;;1.75;1.30;;;25.40;78.40;;;;;;10006823;28;20113;-60
2022/06/08 11:17:22;;;;;;;4.47;1.10;;;25.20;78.40;;;;;;9997775;28;20049;-60
2022/06/08 11:22:42;;;;;;;2.83;1.20;;;25.00;76.10;;;;;;10014421;28;20021;-60
2022/06/08 11:27:35;;;;;;;4.57;1.42;;;24.80;77.00;;;;;;10008538;28;20080;-59
2022/06/08 11:32:34;;;;;;;1.80;1.30;;;24.70;77.30;;;;;;9996353;28;20307;-58
2022/06/08 11:37:38;;;;;;;3.10;1.00;;;24.60;76.50;;;;;;10016707;28;20091;-59
2022/06/08 11:42:36;;;;;;;1.33;1.20;;;24.80;76.20;;;;;;10015011;28;20088;-58
2022/06/08 11:47:34;;;;;;;2.17;0.93;;;25.00;75.10;;;;;;10013557;28;20382;-61
2022/06/08 11:52:26;;;;;;;1.85;1.20;;;25.20;74.40;;;;;;10009970;28;20255;-59
2022/06/08 11:57:19;;;;;;;3.10;2.05;;;25.10;74.00;;;;;;10013319;28;20022;-60
2022/06/08 12:02:22;;;;;;;6.32;1.90;;;25.10;73.50;;;;;;10012795;28;20394;-59
2022/06/08 12:07:36;;;;;;;5.78;2.05;;;25.20;72.40;;;;;;10009339;28;20492;-60
2022/06/08 12:12:28;;;;;;;5.10;1.35;;;25.20;71.60;;;;;;10009886;28;20149;-59
2022/06/08 12:17:18;;;;;;;2.50;1.08;;;25.20;72.10;;;;;;10012823;28;20030;-59
2022/06/08 12:22:27;;;;;;;3.33;0.95;;;25.30;71.50;;;;;;10010880;28;20147;-60
2022/06/08 12:27:24;;;;;;;2.38;1.23;;;25.10;70.80;;;;;;10006033;28;20030;-61
2022/06/08 12:32:25;;;;;;;4.15;0.85;;;25.00;70.90;;;;;;10011475;28;20963;-59
2022/06/08 12:37:28;;;;;;;1.73;1.40;;;24.60;70.90;;;;;;10010637;28;20080;-60
2022/06/08 12:42:29;;;;;;;4.90;0.98;;;24.30;70.50;;;;;;10011728;28;20026;-60
2022/06/08 12:47:25;;;;;;;2.75;1.13;;;24.10;70.60;;;;;;10012408;28;20048;-60
2022/06/08 12:52:26;;;;;;;3.15;1.98;;;23.70;70.70;;;;;;10011209;28;20053;-61
2022/06/08 12:57:26;;;;;;;1.52;1.20;;;23.60;70.60;;;;;;10011745;28;20044;-61
2022/06/08 13:02:20;;;;;;;2.83;1.30;;;23.50;70.50;;;;;;10012311;28;20030;-59
2022/06/08 13:07:17;;;;;;;4.80;1.25;;;23.40;70.70;;;;;;10013062;28;20072;-60
2022/06/08 13:12:11;;;;;;;4.65;0.70;;;23.40;70.80;;;;;;10017702;28;20037;-60
2022/06/08 13:17:01;;;;;;;3.88;1.30;;;23.20;71.00;;;;;;10018355;28;20046;-60
2022/06/08 13:21:52;;;;;;;4.80;1.10;;;23.10;71.50;;;;;;10018199;28;20444;-61
2022/06/08 13:26:46;;;;;;;2.85;0.85;;;22.30;72.90;;;;;;10001394;28;20096;-59
2022/06/08 13:31:37;;;;;;;2.92;1.20;;;21.10;77.40;;;;;;10017302;28;20075;-60
2022/06/08 13:36:43;;;;;;;3.30;0.82;;;20.60;80.90;;;;;;10018334;28;20068;-62
2022/06/08 13:41:35;;;;;;;4.47;1.20;;;20.10;86.60;;;;;;10017837;28;20358;-60
2022/06/08 13:46:33;;;;;;;2.40;1.38;;;19.80;86.90;;;;;;10018074;28;20412;-60
2022/06/08 13:51:25;;;;;;;5.15;1.33;;;19.70;88.70;;;;;;10018975;28;20421;-55
2022/06/08 13:56:18;;;;;;;4.75;1.35;;;19.90;89.70;;;;;;10020380;28;20037;-58
2022/06/08 14:01:33;;;;;;;1.70;1.08;;;19.80;90.70;;;;;;10020927;28;20032;-60
2022/06/08 14:16:50;;;;;;;13.57;2.30;;;19.50;92.70;;;;;;10014855;28;20049;-59
2022/06/08 14:21:42;;;;;;;3.40;1.25;;;19.60;93.10;;;;;;10014977;28;20448;-60
2022/06/08 14:26:33;;;;;;;1.77;1.27;;;19.60;93.10;;;;;;10016742;28;20033;-61
2022/06/08 14:31:29;;;;;;;2.83;1.42;;;19.30;93.80;;;;;;10014438;28;20508;-59
2022/06/08 14:36:24;;;;;;;1.48;0.90;;;19.30;94.10;;;;;;10014862;28;20493;-59
2022/06/08 14:41:15;;;;;;;3.70;1.10;;;19.50;94.10;;;;;;10016247;28;20108;-60
2022/06/08 14:46:09;;;;;;;4.57;1.10;;;19.70;94.30;;;;;;10015862;28;20124;-59
2022/06/08 14:51:00;;;;;;;4.40;1.80;;;19.90;94.30;;;;;;9996842;28;20436;-59
2022/06/08 15:01:03;;;;;;;3.88;1.20;;;19.60;94.90;;;;;;10015223;28;20137;-59
2022/06/08 15:05:54;;;;;;;6.80;1.58;;;19.60;95.10;;;;;;10014456;28;20551;-60
2022/06/08 15:15:58;;;;;;;1.98;1.35;;;19.70;95.20;;;;;;10013002;28;20048;-60
2022/06/08 15:20:49;;;;;;;2.80;0.90;;;19.70;95.40;;;;;;10010797;28;20105;-61
2022/06/08 15:25:50;;;;;;;2.15;1.67;;;19.70;95.50;;;;;;10013110;28;20496;-60
2022/06/08 15:30:42;;;;;;;2.38;1.10;;;19.70;95.70;;;;;;10012795;28;20044;-61
2022/06/08 15:35:34;;;;;;;3.05;2.47;;;19.70;95.80;;;;;;10014343;28;20018;-58
2022/06/08 15:40:34;;;;;;;3.45;1.38;;;19.50;95.90;;;;;;10012900;28;20488;-60
2022/06/08 15:45:26;;;;;;;3.10;1.40;;;19.60;96.20;;;;;;10009752;28;20088;-59
2022/06/08 15:50:32;;;;;;;2.45;1.50;;;19.60;96.20;;;;;;10011973;28;20104;-60
2022/06/08 15:55:32;;;;;;;2.20;1.42;;;19.60;96.40;;;;;;10011846;28;20030;-58
2022/06/08 16:00:25;;;;;;;3.00;1.00;;;19.50;96.50;;;;;;10012756;28;20038;-58
2022/06/08 16:05:16;;;;;;;4.18;1.58;;;19.50;96.50;;;;;;10012784;28;20738;-58
2022/06/08 16:10:07;;;;;;;4.10;1.38;;;19.50;96.60;;;;;;10012631;28;20092;-60
2022/06/08 16:14:57;;;;;;;6.78;1.88;;;19.50;96.80;;;;;;9996925;28;20682;-59
2022/06/08 16:19:49;;;;;;;3.88;1.23;;;19.60;96.90;;;;;;10003866;28;20068;-59
2022/06/08 16:24:41;;;;;;;2.65;1.70;;;19.50;96.90;;;;;;10004970;28;20496;-58
2022/06/08 16:29:33;;;;;;;1.52;1.13;;;19.60;97.20;;;;;;10013005;28;20108;-59
2022/06/08 16:34:25;;;;;;;4.97;1.52;;;19.70;97.10;;;;;;10005746;28;20045;-57
2022/06/08 16:39:16;;;;;;;2.00;1.60;;;19.80;97.20;;;;;;10012371;28;20061;-60
2022/06/08 16:44:07;;;;;;;2.90;1.10;;;19.70;97.40;;;;;;10020162;28;20094;-59
2022/06/08 16:48:58;;;;;;;4.32;1.45;;;19.60;97.60;;;;;;10020542;28;20033;-58
2022/06/08 16:53:48;;;;;;;2.40;1.52;;;19.60;97.80;;;;;;10001533;28;20053;-60
2022/06/08 17:03:49;;;;;;;4.78;2.33;;;19.70;97.80;;;;;;10009396;28;20304;-60
2022/06/08 17:08:39;;;;;;;3.33;1.85;;;19.80;97.90;;;;;;10014276;28;20132;-60
2022/06/08 17:13:30;;;;;;;6.22;3.08;;;19.90;97.90;;;;;;10017755;28;20109;-60
2022/06/08 17:18:21;;;;;;;5.38;2.25;;;19.70;98.00;;;;;;10020270;28;20344;-58
2022/06/08 17:23:12;;;;;;;2.65;1.60;;;19.60;98.20;;;;;;10001640;28;20247;-58
2022/06/08 17:28:03;;;;;;;5.70;2.22;;;19.60;98.30;;;;;;10018911;28;20026;-60
2022/06/08 17:32:54;;;;;;;3.88;1.60;;;19.60;98.30;;;;;;10017586;28;20029;-58
2022/06/08 17:37:44;;;;;;;2.72;1.73;;;19.80;98.20;;;;;;10018927;28;20051;-58
2022/06/08 17:42:35;;;;;;;1.90;1.45;;;19.70;98.30;;;;;;10017769;28;20022;-60
2022/06/08 17:47:27;;;;;;;2.28;1.88;;;19.60;98.40;;;;;;10012147;28;20041;-61
2022/06/08 17:52:20;;;;;;;4.68;2.42;;;19.20;98.80;;;;;;10014641;28;20124;-60
2022/06/08 17:57:11;;;;;;;2.75;2.17;;;19.20;98.80;;;;;;10018199;28;20306;-59
2022/06/08 18:02:01;;;;;;;4.97;2.00;;;19.10;99.10;;;;;;10013349;28;20496;-60
2022/06/08 18:06:52;;;;;;;2.63;1.73;;;19.00;99.20;;;;;;10016300;28;20240;-60
2022/06/08 18:11:58;;;;;;;5.43;2.47;;;19.10;99.10;;;;;;10022162;28;20026;-60
2022/06/08 18:16:49;;;;;;;2.83;1.67;;;19.10;99.00;;;;;;10013691;28;20108;-58
2022/06/08 18:21:40;;;;;;;2.50;1.58;;;19.10;99.10;;;;;;10017319;28;20025;-60
2022/06/08 18:26:31;;;;;;;3.45;1.80;;;19.00;99.30;;;;;;10016851;28;20030;-60
2022/06/08 18:31:22;;;;;;;3.33;2.05;;;19.10;99.30;;;;;;10016361;28;20392;-60
2022/06/08 18:36:13;;;;;;;1.60;1.02;;;19.00;99.50;;;;;;10016464;28;20054;-60
2022/06/08 18:41:06;;;;;;;2.67;1.27;;;19.00;99.40;;;;;;9998176;28;20523;-61
2022/06/08 18:45:57;;;;;;;2.03;1.05;;;19.10;99.50;;;;;;10028220;28;20080;-60
2022/06/08 18:50:48;;;;;;;3.00;1.00;;;19.00;99.40;;;;;;10014974;28;20052;-62
2022/06/08 18:55:40;;;;;;;1.88;1.40;;;18.80;99.60;;;;;;10013495;28;20026;-58
2022/06/08 19:00:31;;;;;;;2.22;1.05;;;18.70;99.70;;;;;;10015856;28;20485;-61
2022/06/08 19:05:25;;;;;;;2.47;0.90;;;18.60;99.70;;;;;;10014041;28;20113;-59
2022/06/08 19:10:17;;;;;;;2.50;0.80;;;18.40;99.90;;;;;;10022463;28;20468;-59
2022/06/08 19:15:15;;;;;;;1.65;0.90;;;18.40;99.90;;;;;;10014750;28;20038;-56
2022/06/08 19:25:18;;;;;;;4.22;0.85;;;18.30;99.90;;;;;;10014950;28;20119;-57
2022/06/08 19:30:11;;;;;;;1.35;1.08;;;18.30;99.90;;;;;;10009883;28;20038;-61
2022/06/08 19:35:02;;;;;;;3.20;1.27;;;18.40;99.90;;;;;;10015557;28;20037;-59
2022/06/08 19:39:52;;;;;;;2.28;1.70;;;18.40;99.90;;;;;;10012232;28;20026;-58
2022/06/08 19:44:43;;;;;;;2.13;1.58;;;18.40;99.90;;;;;;9995979;28;20029;-57
2022/06/08 19:49:34;;;;;;;1.98;1.35;;;18.50;99.90;;;;;;9975865;28;1120319;-59
2022/06/08 19:54:25;;;;;;;1.35;1.13;;;18.40;99.90;;;;;;10016259;28;20088;-57
2022/06/08 19:59:15;;;;;;;2.67;1.60;;;18.30;99.90;;;;;;10016890;28;20045;-56
2022/06/08 20:04:09;;;;;;;2.15;1.35;;;18.40;99.90;;;;;;9995643;28;20034;-60
2022/06/08 20:08:59;;;;;;;3.40;1.67;;;18.50;99.90;;;;;;10013991;28;20073;-56
2022/06/08 20:13:50;;;;;;;4.45;1.30;;;18.50;99.90;;;;;;10018021;28;20053;-58
2022/06/08 20:18:42;;;;;;;2.67;1.60;;;18.50;99.90;;;;;;10015997;28;20117;-59
2022/06/08 20:23:36;;;;;;;1.88;1.17;;;18.40;99.90;;;;;;10016318;28;20036;-59
2022/06/08 20:28:26;;;;;;;3.22;1.20;;;18.40;99.90;;;;;;10014248;28;20120;-62
2022/06/08 20:33:19;;;;;;;2.50;1.00;;;18.30;99.90;;;;;;10013317;28;20036;-60
2022/06/08 20:38:10;;;;;;;3.67;1.77;;;18.40;99.90;;;;;;10013754;28;20067;-60
2022/06/08 20:43:02;;;;;;;1.83;1.13;;;18.30;99.90;;;;;;10015464;28;20296;-62
2022/06/08 20:47:53;;;;;;;2.25;1.45;;;18.20;99.90;;;;;;10018039;28;20132;-61
2022/06/08 20:52:44;;;;;;;1.75;1.45;;;18.20;99.90;;;;;;10014921;28;20473;-60
2022/06/08 20:57:35;;;;;;;1.98;1.33;;;18.20;99.90;;;;;;9996877;28;20030;-62
2022/06/08 21:02:28;;;;;;;2.58;1.20;;;18.20;99.90;;;;;;10013389;28;20053;-61
2022/06/08 21:07:20;;;;;;;1.15;1.02;;;18.30;99.90;;;;;;10012614;28;20491;-60
2022/06/08 21:12:16;;;;;;;2.35;0.80;;;18.30;99.90;;;;;;10012963;28;20022;-61
2022/06/08 21:17:07;;;;;;;1.48;1.02;;;18.40;99.90;;;;;;10012476;28;20038;-59
2022/06/08 21:21:58;;;;;;;1.30;0.93;;;18.30;99.90;;;;;;10012634;28;20484;-62
2022/06/08 21:26:49;;;;;;;1.58;0.88;;;18.30;99.90;;;;;;10015312;28;20034;-60
2022/06/08 21:31:40;;;;;;;2.08;1.10;;;18.30;99.90;;;;;;10024093;28;20026;-60
2022/06/08 21:36:33;;;;;;;1.13;0.60;;;18.30;99.90;;;;;;10002636;28;20030;-62
2022/06/08 21:41:25;;;;;;;1.95;1.30;;;18.30;99.90;;;;;;10001953;28;20030;-60
2022/06/08 21:46:16;;;;;;;1.33;1.10;;;18.30;99.90;;;;;;10018572;28;20037;-61
2022/06/08 21:51:07;;;;;;;1.80;0.90;;;18.30;99.90;;;;;;10018885;28;20053;-61
2022/06/08 21:55:58;;;;;;;1.70;0.93;;;18.30;99.90;;;;;;10022305;28;20036;-59
2022/06/08 22:00:51;;;;;;;3.80;0.90;;;18.20;99.90;;;;;;10018831;28;20578;-63
2022/06/08 22:05:42;;;;;;;3.15;1.63;;;18.10;99.90;;;;;;10017922;28;20071;-59
2022/06/08 22:10:33;;;;;;;1.52;0.70;;;18.00;99.90;;;;;;10016850;28;20400;-60
2022/06/08 22:15:24;;;;;;;1.67;0.98;;;18.00;99.90;;;;;;10017770;28;20134;-60
2022/06/08 22:20:18;;;;;;;0.70;0.50;;;17.70;99.90;;;;;;10017833;28;20036;-60
2022/06/08 22:25:08;;;;;;;1.50;0.70;;;17.60;99.90;;;;;;10016668;28;20419;-59
2022/06/08 22:29:59;;;;;;;2.60;0.70;;;17.30;99.90;;;;;;9998582;28;20034;-58
2022/06/08 22:34:50;;;;;;;0.50;0.50;;;17.10;99.90;;;;;;10017149;28;20109;-59
2022/06/08 22:39:41;;;;;;;0.68;0.45;;;17.00;99.90;;;;;;10016310;28;20050;-61
2022/06/08 22:44:32;;;;;;;2.63;0.50;;;17.10;99.90;;;;;;10015729;28;20065;-58
2022/06/08 22:49:22;;;;;;;1.25;0.85;;;17.20;99.90;;;;;;10015404;28;20460;-59
2022/06/08 22:54:13;;;;;;;1.10;0.70;;;17.30;99.90;;;;;;10015277;28;20034;-58
2022/06/08 22:59:04;;;;;;;1.13;0.52;;;17.30;99.90;;;;;;9997066;28;20129;-60
2022/06/08 23:03:54;;;;;;;2.70;0.80;;;17.40;99.90;;;;;;10014212;28;20025;-59
2022/06/08 23:08:45;;;;;;;3.53;0.60;;;17.40;99.90;;;;;;10014576;28;20049;-58
2022/06/08 23:13:37;;;;;;;2.25;0.80;;;17.40;99.90;;;;;;10014178;28;20077;-61
2022/06/08 23:23:37;;;;;;;3.53;1.00;;;17.30;99.90;;;;;;10018335;28;20498;-61
2022/06/08 23:28:28;;;;;;;1.95;0.60;;;17.30;99.90;;;;;;10016004;28;20560;-60
2022/06/08 23:33:20;;;;;;;2.17;0.70;;;17.30;99.90;;;;;;10013668;28;20028;-61
2022/06/08 23:38:11;;;;;;;1.15;0.70;;;17.30;99.90;;;;;;10015050;28;20030;-59
2022/06/08 23:43:02;;;;;;;0.88;0.63;;;17.20;99.90;;;;;;10013674;28;20033;-60
2022/06/08 23:47:53;;;;;;;1.27;0.57;;;17.30;99.90;;;;;;10017379;28;20029;-60
2022/06/08 23:52:44;;;;;;;0.68;0.60;;;17.30;99.90;;;;;;10013120;28;20230;-60
2022/06/08 23:57:34;;;;;;;0.70;0.47;;;17.30;99.90;;;;;;10013547;28;20390;-60
